Kindersley Airport, Saskatchewan

Past 24 Hour Conditions

Date / Time
(CST)
Conditions Temp
(°F)
Humidity
(%)
Dew Point
(°F)
Wind
(mph)
Pressure
(inches)
Visibility
(miles)
01 September 2015
3:00 Mostly Cloudy 51 70 42 S 8 29.6 15
2:00 Mostly Cloudy 53 65 42 S 9 29.6 15
1:00 Mostly Cloudy 54 63 42 SSE 9 29.6 15
00:00 Mostly Cloudy 54 62 42 S 8 29.7 15
31 August 2015
23:00 Mostly Cloudy 53 66 42 SSW 7 29.7 15
22:00 Mostly Cloudy 54 61 41 SSW 7 29.7 15
21:00 Partly Cloudy 59 50 40 SSW 10 29.7 15
20:00 Mostly Cloudy 63 44 41 SSW 7 29.7 15
19:00 Mostly Cloudy 70 34 40 SW 8 29.7 15
18:00 Partly Cloudy 74   28 39 SW 11 gust 17 29.6 15
17:00 Mostly Cloudy 73 27 37 SW 13 gust 20 29.6 15
16:00 Partly Cloudy 74   25 36 SW 15 gust 23 29.6 15
15:00 Mostly Cloudy 73 25 36 W 18 gust 27 29.6 15
14:00 Mostly Cloudy 74   22 33 WSW 18 29.6 15
13:00 Mostly Cloudy 74   24 36 WSW 15 gust 27 29.6 15
12:00 Mostly Cloudy 71 25 33 W 22 29.6 15
11:00 Mostly Cloudy 67 32 36 WSW 17 gust 25 29.6 15
10:00 Partly Cloudy 62 38 37 WSW 16 29.6 15
9:00 Mostly Cloudy 55 52 38 SW 14 29.6 15
8:00 Partly Cloudy 54 53 37 WSW 13 gust 19 29.6 15
7:00 Mainly Sunny 49   65 37 WSW 11 29.6 15
6:00 Mainly Clear 49   65 38 WSW 12 29.6 15
5:00 Mainly Clear 50 63 38 WSW 11 29.6 15
4:00 Mainly Clear 52 62 39 WSW 17 29.6 15
3:00 Mainly Clear 52 61 39 SW 11 gust 18 29.6 15
N/A Not available
↑ Highest temperature
↓ Lowest temperature

If you require additional historical weather information, please visit Climate Data Online.

What we are doing

Date modified: